Погода Мирадорна неделю

Мараньян, Бразилия

19 - 25 июня
  • 19июня
    Сегодня
    +22°
    +33°
    Небольшая облачность
    ВремяПогодаТемператураВлажностьДавлениеВетер, м/сВероятность осадков
    00:00Ясно и безоблачно+26°C56 %743 мм2.2 м/с5 %
    03:00Ясно и безоблачно+23°C66 %743 мм2.1 м/с5 %
    06:00Ясно и безоблачно+24°C68 %743 мм2.9 м/с5 %
    09:00Ясно и безоблачно+28°C54 %745 мм4.7 м/с5 %
    12:00Практически безоблачно+31°C39 %744 мм4.8 м/с5 %
    15:00Небольшая облачность+33°C33 %742 мм3.6 м/с5 %
    18:00Ясно и безоблачно+28°C47 %742 мм2.0 м/с5 %
    21:00Ясно и безоблачно+25°C55 %743 мм2.1 м/с5 %
  • 20июня
    Четверг
    +23°
    +34°
    Ясно и безоблачно
    ВремяПогодаТемператураВлажностьДавлениеВетер, м/сВероятность осадков
    00:00Ясно и безоблачно+23°C58 %743 мм2.4 м/с5 %
    03:00Ясно и безоблачно+23°C54 %742 мм2.6 м/с5 %
    06:00Ясно и безоблачно+23°C62 %743 мм3.4 м/с5 %
    09:00Ясно и безоблачно+28°C53 %744 мм4.7 м/с5 %
    12:00Ясно и безоблачно+31°C41 %744 мм4.0 м/с5 %
    15:00Ясно и безоблачно+34°C36 %742 мм3.1 м/с5 %
    18:00Ясно и безоблачно+30°C42 %742 мм2.4 м/с5 %
    21:00Ясно и безоблачно+27°C54 %743 мм2.1 м/с5 %
  • 21июня
    Пятница
    +23°
    +34°
    Ясно и безоблачно
    ВремяПогодаТемператураВлажностьДавлениеВетер, м/сВероятность осадков
    00:00Ясно и безоблачно+25°C58 %743 мм2.1 м/с5 %
    03:00Ясно и безоблачно+24°C57 %742 мм2.2 м/с5 %
    06:00Практически безоблачно+24°C61 %743 мм3.7 м/с5 %
    09:00Ясно и безоблачно+28°C55 %744 мм4.8 м/с4 %
    12:00Ясно и безоблачно+31°C41 %744 мм4.3 м/с4 %
    15:00Ясно и безоблачно+33°C36 %742 мм3.2 м/с5 %
    18:00Ясно и безоблачно+30°C42 %742 мм2.0 м/с5 %
    21:00Ясно и безоблачно+27°C53 %743 мм2.1 м/с5 %
  • 22июня
    Суббота
    +21°
    +34°
    Практически безоблачно
    ВремяПогодаТемператураВлажностьДавлениеВетер, м/сВероятность осадков
    00:00Ясно и безоблачно+26°C55 %743 мм2.5 м/с5 %
    03:00Небольшая облачность+24°C59 %743 мм2.5 м/с4 %
    06:00Практически безоблачно+24°C61 %743 мм3.4 м/с4 %
    09:00Ясно и безоблачно+28°C55 %745 мм4.5 м/с4 %
    12:00Ясно и безоблачно+31°C41 %744 мм4.3 м/с4 %
    15:00Практически безоблачно+33°C35 %742 мм3.0 м/с5 %
    18:00Ясно и безоблачно+29°C41 %742 мм2.5 м/с5 %
    21:00Ясно и безоблачно+28°C51 %743 мм2.0 м/с4 %
  • 23июня
    Воскресенье
    +21°
    +33°
    Облачно с прояснениями
    ВремяПогодаТемператураВлажностьДавлениеВетер, м/сВероятность осадков
    00:00Ясно и безоблачно+23°C63 %743 мм2.5 м/с5 %
    03:00Ясно и безоблачно+23°C66 %743 мм2.1 м/с6 %
    06:00Ясно и безоблачно+23°C68 %743 мм2.3 м/с9 %
    09:00Небольшая облачность+29°C52 %745 мм4.3 м/с11 %
    12:00Небольшая облачность+31°C39 %744 мм4.2 м/с7 %
    15:00Облачно с прояснениями+33°C38 %742 мм3.0 м/с5 %
    18:00Облачно с прояснениями+29°C50 %742 мм1.9 м/с5 %
    21:00Практически безоблачно+27°C55 %743 мм2.1 м/с5 %
Мы используем cookies
Соглашаюсь